Time;durP1;ratioP1;P1;durP2;ratioP2;P2;SDS_P1;SDS_P2;PMS_P1;PMS_P2;Temp;Humidity;BMP_temperature;BMP_pressure;BME280_temperature;BME280_humidity;BME280_pressure;Samples;Min_cycle;Max_cycle;Signal;HPM_P1;HPM_P2
2021/08/30 00:00:24;;;;;;;18.67;12.40;;;;;;;15.23;94.04;101842.91;2089367;28;20098;-60
2021/08/30 00:01:25;;;;;;;15.87;12.33;;;;;;;15.23;93.82;101839.44;2098210;28;20059;-60
2021/08/30 00:02:25;;;;;;;18.77;12.07;;;;;;;15.23;93.69;101845.56;2098251;28;20546;-60
2021/08/30 00:03:25;;;;;;;18.87;12.57;;;;;;;15.24;94.07;101841.13;2098198;28;20017;-59
2021/08/30 00:04:25;;;;;;;16.63;10.87;;;;;;;15.23;93.98;101842.91;2089313;28;20103;-60
2021/08/30 00:05:26;;;;;;;17.40;11.73;;;;;;;15.22;94.04;101837.72;2089382;28;20104;-60
2021/08/30 00:06:26;;;;;;;14.07;10.10;;;;;;;15.24;93.91;101844.63;2098128;28;20025;-61
2021/08/30 00:07:27;;;;;;;15.80;12.30;;;;;;;15.23;93.76;101844.69;2098220;28;20182;-60
2021/08/30 00:08:27;;;;;;;16.60;12.40;;;;;;;15.22;93.11;101840.34;2098201;28;20032;-60
2021/08/30 00:09:27;;;;;;;17.03;11.87;;;;;;;15.24;93.08;101841.13;2098163;28;20493;-61
2021/08/30 00:10:27;;;;;;;16.03;12.33;;;;;;;15.26;93.28;101849.81;2098222;28;20432;-62
2021/08/30 00:11:28;;;;;;;16.90;11.73;;;;;;;15.26;93.13;101841.91;2098128;28;20074;-62
2021/08/30 00:12:28;;;;;;;18.00;12.70;;;;;;;15.27;93.18;101848.88;2098196;28;20044;-60
2021/08/30 00:13:29;;;;;;;18.80;11.10;;;;;;;15.26;93.10;101844.56;2098675;28;20032;-61
2021/08/30 00:14:31;;;;;;;18.05;12.27;;;;;;;15.26;93.47;101847.19;2099689;28;20054;-60
2021/08/30 00:15:31;;;;;;;17.45;11.23;;;;;;;15.25;93.28;101846.31;2099521;28;20517;-59
2021/08/30 00:16:31;;;;;;;18.23;11.70;;;;;;;15.25;93.24;101837.56;2099736;28;20046;-60
2021/08/30 00:17:32;;;;;;;17.27;12.37;;;;;;;15.23;93.66;101842.91;2099608;28;20033;-60
2021/08/30 00:18:32;;;;;;;17.23;10.60;;;;;;;15.24;93.55;101843.75;2099711;28;20028;-60
2021/08/30 00:19:33;;;;;;;16.37;12.00;;;;;;;15.23;93.71;101844.69;2099654;28;20048;-61
2021/08/30 00:20:34;;;;;;;17.10;11.90;;;;;;;15.23;93.75;101849.94;2099613;28;20024;-59
2021/08/30 00:21:34;;;;;;;17.23;12.50;;;;;;;15.23;94.11;101842.91;2099552;28;20052;-60
2021/08/30 00:22:34;;;;;;;16.77;12.43;;;;;;;15.25;93.71;101848.06;2099617;28;20278;-60
2021/08/30 00:23:34;;;;;;;17.07;13.13;;;;;;;15.25;93.65;101842.81;2099534;28;20024;-60
2021/08/30 00:24:35;;;;;;;19.77;13.00;;;;;;;15.24;92.75;101843.75;2099697;28;20029;-61
2021/08/30 00:25:35;;;;;;;17.17;11.90;;;;;;;15.26;93.29;101839.28;2090705;28;20033;-60
2021/08/30 00:26:35;;;;;;;15.10;12.67;;;;;;;15.27;93.32;101838.34;2090804;28;20029;-60
2021/08/30 00:27:36;;;;;;;18.52;13.10;;;;;;;15.29;93.16;101840.00;2099583;28;20075;-61
2021/08/30 00:28:37;;;;;;;14.63;12.05;;;;;;;15.29;93.19;101839.13;2099546;28;20536;-61
2021/08/30 00:29:37;;;;;;;20.25;13.05;;;;;;;15.28;92.75;101837.44;2099582;28;20043;-59
2021/08/30 00:30:37;;;;;;;17.77;11.63;;;;;;;15.27;93.17;101841.00;2099613;28;20111;-60
2021/08/30 00:31:37;;;;;;;14.57;11.63;;;;;;;15.26;93.15;101834.03;2099566;28;20022;-60
2021/08/30 00:32:38;;;;;;;17.43;12.30;;;;;;;15.25;93.31;101837.56;2090627;28;20123;-60
2021/08/30 00:33:38;;;;;;;13.87;11.27;;;;;;;15.25;93.34;101832.31;2090661;28;20033;-60
2021/08/30 00:34:38;;;;;;;13.20;10.77;;;;;;;15.25;93.29;101840.19;2099461;28;20412;-61
2021/08/30 00:35:40;;;;;;;19.57;12.43;;;;;;;15.24;93.24;101841.13;2099608;28;20073;-60
2021/08/30 00:36:40;;;;;;;16.98;12.32;;;;;;;15.23;93.47;101839.44;2099537;28;20024;-59
2021/08/30 00:37:41;;;;;;;18.70;12.17;;;;;;;15.23;93.51;101835.03;2099511;28;20059;-60
2021/08/30 00:38:41;;;;;;;17.80;12.57;;;;;;;15.25;93.41;101838.44;2099522;28;20013;-59
2021/08/30 00:39:41;;;;;;;16.37;11.33;;;;;;;15.26;93.48;101841.91;2099581;28;20394;-60
2021/08/30 00:40:42;;;;;;;23.20;14.67;;;;;;;15.24;93.03;101835.88;2090574;28;20029;-60
2021/08/30 00:41:42;;;;;;;17.33;11.57;;;;;;;15.24;93.09;101835.88;2090653;28;20021;-59
2021/08/30 00:42:44;;;;;;;15.83;11.83;;;;;;;15.26;93.49;101839.28;2099334;28;20378;-60
2021/08/30 00:43:44;;;;;;;19.80;11.10;;;;;;;15.26;92.93;101836.66;2099456;28;20362;-60
2021/08/30 00:44:44;;;;;;;15.80;11.77;;;;;;;15.24;93.00;101833.22;2099517;28;20054;-60
2021/08/30 00:45:45;;;;;;;15.93;10.40;;;;;;;15.24;93.01;101833.22;2099471;28;20478;-60
2021/08/30 00:46:46;;;;;;;20.43;11.07;;;;;;;15.24;93.45;101835.88;2099441;28;20316;-60
2021/08/30 00:47:46;;;;;;;18.67;11.80;;;;;;;15.24;93.20;101835.88;2099456;28;20110;-60
2021/08/30 00:48:49;;;;;;;15.03;12.00;;;;;;;15.22;93.58;101843.81;2099424;28;20028;-60
2021/08/30 00:49:54;;;;;;;18.75;12.10;;;;;;;15.23;93.51;101845.56;2099352;28;20107;-60
2021/08/30 00:50:55;;;;;;;16.23;11.40;;;;;;;15.22;93.69;101849.06;2099399;28;20394;-60
2021/08/30 00:51:57;;;;;;;18.15;11.60;;;;;;;15.23;93.65;101845.56;2099351;28;20024;-60
2021/08/30 00:52:57;;;;;;;18.42;12.45;;;;;;;15.23;93.79;101848.19;2099560;28;20032;-61
2021/08/30 00:53:58;;;;;;;17.10;12.63;;;;;;;15.24;93.35;101841.13;2099460;28;20051;-60
2021/08/30 00:54:59;;;;;;;19.02;12.18;;;;;;;15.23;93.45;101844.69;2099565;28;20810;-60
2021/08/30 00:56:00;;;;;;;17.65;13.30;;;;;;;15.22;93.35;101843.00;2099417;28;20040;-60
2021/08/30 00:57:03;;;;;;;18.27;12.77;;;;;;;15.21;93.13;101841.25;2099497;28;20024;-60
2021/08/30 00:58:03;;;;;;;16.88;11.77;;;;;;;15.22;93.09;101846.44;2099252;28;20782;-61
2021/08/30 00:59:04;;;;;;;19.23;12.13;;;;;;;15.25;93.01;101848.06;2090441;28;20060;-60
2021/08/30 01:00:05;;;;;;;17.50;12.35;;;;;;;15.25;93.20;101837.56;2090314;28;20423;-61
2021/08/30 01:01:08;;;;;;;15.50;11.75;;;;;;;15.24;93.07;101834.09;2099311;28;20394;-61
2021/08/30 01:02:12;;;;;;;18.70;13.48;;;;;;;15.23;93.35;101845.56;2099298;28;20039;-60
2021/08/30 01:03:12;;;;;;;15.77;11.88;;;;;;;15.22;93.62;101841.19;2099288;28;20462;-60
2021/08/30 01:04:13;;;;;;;15.83;11.90;;;;;;;15.22;93.64;101837.72;2099372;28;20016;-60
2021/08/30 01:05:15;;;;;;;18.15;12.20;;;;;;;15.23;93.38;101850.81;2090400;28;20027;-60
2021/08/30 01:06:27;;;;;;;17.40;11.82;;;;;;;15.23;93.28;101839.44;2082248;28;20067;-59
2021/08/30 01:07:49;;;;;;;22.80;12.85;;;;;;;15.22;93.58;101848.25;2092121;28;20418;-61
2021/08/30 01:09:09;;;;;;;18.60;12.80;;;;;;;15.22;93.60;101848.25;2099251;28;20025;-60
2021/08/30 01:10:18;;;;;;;17.95;12.38;;;;;;;15.22;93.67;101853.50;2099243;28;20031;-60
2021/08/30 01:11:23;;;;;;;18.25;11.93;;;;;;;15.22;93.49;101853.50;2099244;28;20059;-60
2021/08/30 01:12:28;;;;;;;15.93;12.32;;;;;;;15.22;93.34;101854.34;2099170;28;20122;-60
2021/08/30 01:13:33;;;;;;;18.33;11.38;;;;;;;15.22;93.43;101853.50;2099127;28;20123;-60
2021/08/30 01:14:41;;;;;;;13.57;10.30;;;;;;;15.21;93.31;101855.28;2099262;28;20445;-60
2021/08/30 01:15:45;;;;;;;17.90;12.65;;;;;;;15.21;93.64;101862.28;2099013;28;20401;-60
2021/08/30 01:16:47;;;;;;;20.30;12.43;;;;;;;15.17;93.76;101851.94;2099216;28;20033;-60
2021/08/30 01:17:49;;;;;;;14.35;10.90;;;;;;;15.18;93.66;101858.91;2099225;28;20028;-60
2021/08/30 01:18:52;;;;;;;18.05;13.13;;;;;;;15.16;93.74;101854.63;2099093;28;20032;-60
2021/08/30 01:20:04;;;;;;;16.13;13.15;;;;;;;15.16;93.62;101855.47;2099233;28;20389;-59
2021/08/30 01:21:25;;;;;;;17.63;12.65;;;;;;;15.14;93.32;101859.09;2099157;28;20033;-61
2021/08/30 01:22:27;;;;;;;20.83;13.90;;;;;;;15.12;93.30;101853.91;2099181;28;20024;-61
2021/08/30 01:23:33;;;;;;;16.38;12.65;;;;;;;15.15;93.32;101858.16;2099124;28;20031;-60
2021/08/30 01:24:34;;;;;;;22.98;13.45;;;;;;;15.14;93.38;101852.06;2099096;28;20024;-60
2021/08/30 01:25:36;;;;;;;19.38;12.95;;;;;;;15.13;93.59;101855.63;2090165;28;20061;-61
2021/08/30 01:26:41;;;;;;;19.38;13.40;;;;;;;15.12;93.31;101859.16;2090467;28;20036;-59
2021/08/30 01:27:44;;;;;;;16.77;12.18;;;;;;;15.14;93.20;101856.47;2099124;28;20059;-61
2021/08/30 01:29:01;;;;;;;19.75;11.75;;;;;;;15.12;93.48;101853.91;2099100;28;20028;-60
2021/08/30 01:30:12;;;;;;;15.52;12.15;;;;;;;15.13;93.49;101855.63;2099108;28;20527;-60
2021/08/30 01:31:19;;;;;;;17.48;13.32;;;;;;;15.13;93.57;101857.41;2099181;28;20107;-61
2021/08/30 01:32:38;;;;;;;16.63;12.52;;;;;;;15.14;93.26;101857.34;2099041;28;20401;-60
2021/08/30 01:33:41;;;;;;;20.95;11.90;;;;;;;15.13;93.38;101863.53;2090061;28;20079;-60
2021/08/30 01:34:42;;;;;;;19.63;13.07;;;;;;;15.12;93.47;101850.44;2090470;28;20036;-61
2021/08/30 01:35:42;;;;;;;;;;;;;;;15.11;93.87;101857.47;2099458;28;20443;-61
2021/08/30 01:36:45;;;;;;;19.63;12.17;;;;;;;15.11;93.66;101857.47;2098979;28;19965;-60
2021/08/30 01:37:48;;;;;;;21.63;13.45;;;;;;;15.12;93.56;101853.91;2099084;28;20028;-59
2021/08/30 01:38:48;;;;;;;21.48;13.10;;;;;;;15.10;93.76;101847.88;2098974;28;20040;-60
2021/08/30 01:39:50;;;;;;;18.60;12.93;;;;;;;15.08;93.50;101852.34;2099212;28;20478;-61
2021/08/30 01:40:50;;;;;;;;;;;;;;;15.09;93.39;101858.47;2099325;28;20082;-60
2021/08/30 01:41:50;;;;;;;22.00;14.67;;;;;;;15.06;93.38;101862.91;2099306;28;19925;-60
2021/08/30 01:42:54;;;;;;;21.52;13.90;;;;;;;15.06;93.16;101860.28;2098968;28;20103;-60
2021/08/30 01:43:56;;;;;;;17.45;11.68;;;;;;;15.09;93.45;101858.47;2098937;28;20027;-60
2021/08/30 01:44:58;;;;;;;17.73;13.23;;;;;;;15.08;93.48;101868.13;2098964;28;20031;-60
2021/08/30 01:45:59;;;;;;;15.40;12.48;;;;;;;15.08;93.21;101860.22;2099060;28;20028;-60
2021/08/30 01:47:00;;;;;;;18.95;13.02;;;;;;;15.07;93.10;101861.16;2098995;28;20070;-59
2021/08/30 01:48:03;;;;;;;17.73;12.02;;;;;;;15.09;93.34;101858.47;2099048;28;20031;-60
2021/08/30 01:49:08;;;;;;;23.02;12.75;;;;;;;15.09;93.17;101861.94;2098809;28;20028;-61
2021/08/30 01:50:10;;;;;;;20.02;13.18;;;;;;;15.08;93.14;101860.22;2098931;28;20140;-61
2021/08/30 01:51:10;;;;;;;21.30;13.93;;;;;;;15.07;93.63;101855.91;2098960;28;20108;-61
2021/08/30 01:52:11;;;;;;;23.20;12.80;;;;;;;15.06;93.34;101854.22;2098850;28;20021;-59
2021/08/30 01:53:11;;;;;;;17.30;14.40;;;;;;;15.05;93.44;101858.59;2098973;28;20024;-60
2021/08/30 01:54:12;;;;;;;17.63;12.90;;;;;;;15.04;93.43;101856.03;2098793;28;20465;-60
2021/08/30 01:56:19;;;;;;;17.25;11.85;;;;;;;15.05;93.29;101858.59;2098962;28;20024;-61
2021/08/30 01:57:22;;;;;;;18.85;14.02;;;;;;;15.05;93.15;101863.00;2098878;28;20024;-61
2021/08/30 02:00:47;;;;;;;17.15;12.57;;;;;;;15.03;93.39;101864.84;2098739;28;20025;-60
2021/08/30 02:01:47;;;;;;;20.20;11.93;;;;;;;15.03;93.36;101855.19;2098871;28;20098;-60
2021/08/30 02:02:48;;;;;;;16.47;11.70;;;;;;;15.04;93.21;101856.03;2098864;28;20169;-61
2021/08/30 02:03:48;;;;;;;19.40;12.20;;;;;;;15.03;93.25;101859.59;2098804;28;20375;-60
2021/08/30 02:04:48;;;;;;;19.40;12.67;;;;;;;15.02;93.35;101857.91;2098885;28;20021;-60
2021/08/30 02:05:52;;;;;;;18.60;13.27;;;;;;;15.01;93.46;101850.91;2098812;28;20296;-61
2021/08/30 02:06:52;;;;;;;21.20;13.18;;;;;;;15.01;93.49;101858.78;2089859;28;20024;-60
2021/08/30 02:07:52;;;;;;;20.87;14.10;;;;;;;15.01;93.09;101853.53;2089942;28;20585;-59
2021/08/30 02:08:55;;;;;;;17.27;14.37;;;;;;;14.99;93.00;101852.78;2098782;28;20028;-60
2021/08/30 02:09:55;;;;;;;22.58;12.70;;;;;;;15.01;93.05;101850.91;2098695;28;20028;-60
2021/08/30 02:11:02;;;;;;;18.95;13.95;;;;;;;15.00;93.27;101857.09;2098844;28;20493;-60
2021/08/30 02:12:02;;;;;;;18.88;14.02;;;;;;;14.99;93.39;101858.88;2098709;28;20025;-61
2021/08/30 02:13:03;;;;;;;19.70;13.55;;;;;;;14.99;93.53;101858.03;2098645;28;20032;-61
2021/08/30 02:14:07;;;;;;;25.60;13.37;;;;;;;14.99;93.48;101858.03;2089873;28;20082;-61
2021/08/30 02:15:07;;;;;;;18.83;13.07;;;;;;;14.98;93.26;101858.97;2081873;28;20049;-61
2021/08/30 02:16:08;;;;;;;19.08;13.90;;;;;;;14.97;93.50;101859.84;2089885;28;20032;-61
2021/08/30 02:17:17;;;;;;;20.58;13.82;;;;;;;14.96;93.37;101858.16;2098794;28;20027;-60
2021/08/30 02:18:43;;;;;;;21.25;13.35;;;;;;;14.97;93.60;101851.97;2098816;28;20033;-61
2021/08/30 02:19:54;;;;;;;16.73;12.52;;;;;;;14.96;93.24;101853.75;2098884;28;20056;-61
2021/08/30 02:21:11;;;;;;;20.05;13.13;;;;;;;14.95;93.42;101854.66;2098686;28;20020;-60
2021/08/30 02:22:19;;;;;;;20.75;13.77;;;;;;;14.95;93.31;101852.03;2098723;28;20103;-61
2021/08/30 02:23:25;;;;;;;16.52;12.48;;;;;;;14.95;93.43;101852.03;2089834;28;20098;-61
2021/08/30 02:24:38;;;;;;;20.55;13.68;;;;;;;14.95;93.09;101848.56;2090620;28;20021;-61
2021/08/30 02:25:39;;;;;;;20.02;12.25;;;;;;;14.93;93.48;101854.75;2098682;28;20039;-60
2021/08/30 02:27:04;;;;;;;20.85;14.60;;;;;;;14.92;93.76;101849.56;2098724;28;20025;-60
2021/08/30 02:28:05;;;;;;;21.02;13.02;;;;;;;14.91;93.59;101850.47;2089729;28;20033;-60
2021/08/30 02:29:07;;;;;;;22.58;13.27;;;;;;;14.90;93.72;101848.78;2089832;28;20056;-60
2021/08/30 02:30:20;;;;;;;18.52;13.25;;;;;;;14.90;93.62;101847.00;2098665;28;20020;-60
2021/08/30 02:31:21;;;;;;;19.55;13.40;;;;;;;14.89;93.69;101847.91;2098627;28;20107;-60
2021/08/30 02:32:21;;;;;;;20.85;13.88;;;;;;;14.89;93.58;101853.16;2098659;28;20505;-60
2021/08/30 02:33:23;;;;;;;20.30;13.95;;;;;;;14.87;93.97;101844.50;2089750;28;20557;-60
2021/08/30 02:34:27;;;;;;;19.20;12.77;;;;;;;14.88;93.84;101846.22;2089846;28;20406;-60
2021/08/30 02:35:32;;;;;;;20.38;13.60;;;;;;;14.88;94.05;101846.22;2098585;28;20040;-62
2021/08/30 02:36:34;;;;;;;20.05;13.75;;;;;;;14.89;93.97;101841.81;2098168;28;20046;-60
2021/08/30 02:37:37;;;;;;;20.17;12.07;;;;;;;14.88;94.09;101846.22;2098493;28;20025;-61
2021/08/30 02:38:40;;;;;;;21.85;12.38;;;;;;;14.88;94.07;101843.59;2098575;28;20475;-60
2021/08/30 02:39:47;;;;;;;18.52;13.63;;;;;;;14.88;94.08;101840.94;2098516;28;20035;-60
2021/08/30 02:40:47;;;;;;;21.52;12.73;;;;;;;14.87;93.88;101839.25;2098526;28;20390;-61
2021/08/30 02:41:50;;;;;;;17.95;13.60;;;;;;;14.86;94.00;101842.81;2098507;28;20052;-60
2021/08/30 02:42:51;;;;;;;16.80;12.05;;;;;;;14.86;93.83;101844.56;2098568;28;20385;-60
2021/08/30 02:43:52;;;;;;;;;;;;;;;14.86;93.89;101852.47;2098977;28;20035;-61
2021/08/30 02:44:52;;;;;;;20.20;12.80;;;;;;;14.86;94.23;101847.22;2098570;28;19915;-60
2021/08/30 02:45:54;;;;;;;21.40;13.03;;;;;;;14.84;94.17;101849.91;2098675;28;20493;-60
2021/08/30 02:46:55;;;;;;;19.05;12.70;;;;;;;14.85;93.81;101843.72;2098526;28;20024;-61
2021/08/30 02:48:01;;;;;;;16.83;13.75;;;;;;;14.85;94.09;101846.34;2098525;28;20028;-60
2021/08/30 02:49:04;;;;;;;19.08;13.38;;;;;;;14.86;94.14;101848.06;2089464;28;20021;-59
2021/08/30 02:50:06;;;;;;;17.60;13.15;;;;;;;14.87;93.96;101844.50;2089911;28;20028;-61
2021/08/30 02:51:08;;;;;;;17.95;12.70;;;;;;;14.87;94.13;101847.13;2098528;28;20032;-62
2021/08/30 02:52:14;;;;;;;17.58;11.73;;;;;;;14.87;93.89;101844.50;2098440;28;20025;-59
2021/08/30 02:53:15;;;;;;;17.33;12.98;;;;;;;14.87;94.13;101849.75;2098502;28;20020;-60
2021/08/30 02:54:17;;;;;;;20.23;14.90;;;;;;;14.86;94.30;101848.06;2098480;28;20035;-61
2021/08/30 02:55:19;;;;;;;20.23;12.73;;;;;;;14.85;93.98;101846.34;2089512;28;20489;-60
2021/08/30 02:56:20;;;;;;;19.63;13.57;;;;;;;14.86;94.00;101849.84;2089710;28;20013;-60
2021/08/30 02:57:21;;;;;;;16.02;13.13;;;;;;;14.85;94.26;101856.03;2098457;28;20021;-60
2021/08/30 02:58:23;;;;;;;17.85;12.50;;;;;;;14.83;94.20;101850.81;2098369;28;20021;-58
2021/08/30 02:59:25;;;;;;;20.42;13.77;;;;;;;14.83;94.15;101853.47;2098386;28;20065;-60
2021/08/30 03:00:26;;;;;;;18.75;13.75;;;;;;;14.83;94.21;101853.47;2098384;28;20043;-61
2021/08/30 03:01:27;;;;;;;18.63;13.05;;;;;;;14.83;94.30;101848.19;2098362;28;20078;-61
2021/08/30 03:02:27;;;;;;;21.83;12.88;;;;;;;14.83;94.34;101849.97;2098409;28;20028;-61
2021/08/30 03:03:28;;;;;;;16.70;12.57;;;;;;;14.85;94.12;101850.75;2098474;28;20030;-61
2021/08/30 03:04:32;;;;;;;22.23;13.20;;;;;;;14.84;94.12;101849.03;2098568;28;20021;-61
2021/08/30 03:05:33;;;;;;;15.30;11.45;;;;;;;14.85;93.95;101845.50;2089483;28;20028;-60
2021/08/30 03:06:34;;;;;;;16.45;12.77;;;;;;;14.85;93.92;101845.50;2089563;28;20047;-60
2021/08/30 03:07:36;;;;;;;16.55;11.57;;;;;;;14.85;94.09;101842.88;2098434;28;20029;-60
2021/08/30 03:08:36;;;;;;;17.38;13.00;;;;;;;14.84;93.88;101846.41;2098429;28;20020;-58
2021/08/30 03:09:36;;;;;;;19.17;13.10;;;;;;;14.84;94.06;101841.16;2098362;28;20062;-60
2021/08/30 03:10:37;;;;;;;17.70;12.87;;;;;;;14.83;94.01;101836.81;2098385;28;20060;-60
2021/08/30 03:11:39;;;;;;;20.92;12.48;;;;;;;14.83;93.99;101842.06;2098565;28;20535;-60
2021/08/30 03:12:41;;;;;;;18.13;12.38;;;;;;;14.82;94.19;101841.25;2098289;28;20127;-60
2021/08/30 03:13:43;;;;;;;17.45;12.55;;;;;;;14.81;94.18;101842.16;2098274;28;20025;-59
2021/08/30 03:14:44;;;;;;;17.60;12.32;;;;;;;14.81;93.95;101839.53;2089450;28;20123;-60
2021/08/30 03:15:48;;;;;;;16.08;12.68;;;;;;;14.81;94.01;101834.25;2089444;28;20058;-60
2021/08/30 03:16:50;;;;;;;17.65;12.57;;;;;;;14.81;94.03;101839.53;2098389;28;20028;-61
2021/08/30 03:17:51;;;;;;;16.80;11.93;;;;;;;14.81;94.19;101829.00;2098349;28;20111;-60
2021/08/30 03:18:52;;;;;;;19.90;12.35;;;;;;;14.81;94.00;101831.63;2098315;28;20020;-61
2021/08/30 03:19:54;;;;;;;15.88;12.35;;;;;;;14.82;94.18;101835.13;2098391;28;20066;-60
2021/08/30 03:20:56;;;;;;;18.58;12.38;;;;;;;14.80;94.21;101832.56;2098296;28;20389;-61
2021/08/30 03:21:59;;;;;;;16.80;13.10;;;;;;;14.78;94.22;101834.41;2089343;28;20112;-60
2021/08/30 03:23:01;;;;;;;15.65;10.85;;;;;;;14.80;94.05;101835.19;2089798;28;20058;-60
2021/08/30 03:24:02;;;;;;;19.75;13.00;;;;;;;14.80;94.23;101835.19;2098388;28;20055;-60
2021/08/30 03:25:04;;;;;;;17.75;12.13;;;;;;;14.79;94.08;101836.97;2098481;28;20035;-61
2021/08/30 03:26:06;;;;;;;17.55;12.65;;;;;;;14.79;94.10;101836.13;2098306;28;20150;-60
2021/08/30 03:27:08;;;;;;;22.02;13.15;;;;;;;14.78;94.12;101834.41;2098395;28;20469;-61
2021/08/30 03:28:11;;;;;;;15.60;11.98;;;;;;;14.79;93.76;101841.38;2098323;28;20158;-60
2021/08/30 03:29:12;;;;;;;18.45;12.88;;;;;;;14.78;93.86;101839.69;2089300;28;20543;-60
2021/08/30 03:30:15;;;;;;;15.70;11.80;;;;;;;14.78;93.99;101834.41;2089528;28;20025;-60
2021/08/30 03:31:15;;;;;;;21.65;12.15;;;;;;;14.77;94.20;101837.94;2089393;28;20120;-59
2021/08/30 03:32:17;;;;;;;17.70;13.05;;;;;;;14.77;94.26;101843.19;2089407;28;20460;-60
2021/08/30 03:33:19;;;;;;;22.25;13.32;;;;;;;14.76;94.19;101838.84;2089642;28;20036;-60
2021/08/30 03:34:21;;;;;;;17.15;12.45;;;;;;;14.76;94.24;101846.72;2098328;28;20028;-60
2021/08/30 03:35:22;;;;;;;17.67;12.70;;;;;;;14.78;93.99;101844.94;2098354;28;20027;-60
2021/08/30 03:36:24;;;;;;;16.85;12.50;;;;;;;14.78;94.19;101847.56;2098312;28;20449;-60
2021/08/30 03:37:25;;;;;;;14.45;12.65;;;;;;;14.77;94.12;101848.47;2098305;28;20025;-62
2021/08/30 03:38:26;;;;;;;17.50;12.23;;;;;;;14.78;94.28;101844.94;2098259;28;20070;-60
2021/08/30 03:39:26;;;;;;;17.98;13.18;;;;;;;14.77;93.98;101837.94;2098276;28;20103;-60
2021/08/30 03:40:28;;;;;;;21.33;14.13;;;;;;;14.77;94.03;101848.47;2098241;28;20060;-60
2021/08/30 03:41:30;;;;;;;16.50;12.13;;;;;;;14.78;94.11;101842.31;2098269;28;20032;-61
2021/08/30 03:42:31;;;;;;;17.13;12.52;;;;;;;14.79;94.12;101841.38;2089347;28;20410;-60
2021/08/30 03:43:32;;;;;;;;;;;;;;;14.78;94.21;101839.69;2089724;28;20029;-60
2021/08/30 03:44:34;;;;;;;18.88;13.13;;;;;;;14.77;94.09;101838.81;2098316;28;19947;-60
2021/08/30 03:45:37;;;;;;;21.83;13.00;;;;;;;14.79;93.93;101841.38;2098327;28;20025;-60
2021/08/30 03:46:38;;;;;;;16.88;12.35;;;;;;;14.79;94.11;101841.38;2098293;28;20489;-60
2021/08/30 03:47:40;;;;;;;17.40;13.23;;;;;;;14.81;94.14;101839.53;2089258;28;20079;-60
2021/08/30 03:48:40;;;;;;;;;;;;;;;14.79;93.91;101842.22;2090729;28;20428;-59
2021/08/30 03:49:41;;;;;;;17.07;12.27;;;;;;;14.80;93.74;101832.56;2099907;28;19908;-60
2021/08/30 03:50:41;;;;;;;18.35;12.13;;;;;;;14.82;93.71;101838.63;2099925;28;20055;-60
2021/08/30 03:51:42;;;;;;;18.52;12.60;;;;;;;14.81;93.97;101834.25;2099947;28;20021;-61
2021/08/30 03:52:43;;;;;;;19.08;12.75;;;;;;;14.81;93.87;101834.25;2099842;28;20056;-60
2021/08/30 03:53:45;;;;;;;19.70;12.63;;;;;;;14.80;93.88;101833.44;2090952;28;20032;-60
2021/08/30 03:54:45;;;;;;;16.92;11.75;;;;;;;14.79;93.98;101834.31;2091139;28;20079;-60
2021/08/30 03:55:47;;;;;;;15.47;9.87;;;;;;;14.80;93.80;101838.69;2099933;28;20481;-60
2021/08/30 03:56:48;;;;;;;15.68;13.20;;;;;;;14.83;93.79;101831.56;2099838;28;20149;-60
2021/08/30 03:57:52;;;;;;;17.10;12.43;;;;;;;14.83;93.44;101837.69;2099807;28;20509;-60
2021/08/30 03:58:53;;;;;;;16.45;12.57;;;;;;;14.83;93.63;101831.56;2099831;28;20028;-60
2021/08/30 03:59:57;;;;;;;16.20;11.23;;;;;;;14.82;93.71;101825.47;2099773;28;20034;-60
2021/08/30 04:01:04;;;;;;;16.27;10.93;;;;;;;14.82;93.68;101829.88;2099745;28;20151;-60
2021/08/30 04:02:06;;;;;;;16.85;11.48;;;;;;;14.80;93.61;101838.69;2090775;28;20017;-61
2021/08/30 04:03:09;;;;;;;17.38;12.68;;;;;;;14.79;93.68;101830.88;2091072;28;20031;-61
2021/08/30 04:04:15;;;;;;;15.77;12.23;;;;;;;14.79;93.80;101830.88;2099754;28;20421;-59
2021/08/30 04:05:21;;;;;;;17.50;11.77;;;;;;;14.78;93.74;101831.81;2099728;28;20031;-60
2021/08/30 04:06:23;;;;;;;18.27;11.93;;;;;;;14.79;93.75;101830.88;2099756;28;20027;-60
2021/08/30 04:07:24;;;;;;;18.45;13.52;;;;;;;14.78;93.47;101829.16;2099845;28;20017;-60
2021/08/30 04:08:25;;;;;;;22.83;13.02;;;;;;;14.78;93.67;101823.91;2099748;28;20030;-60
2021/08/30 04:09:27;;;;;;;18.13;13.25;;;;;;;14.78;93.49;101822.13;2099725;28;20016;-60
2021/08/30 04:10:29;;;;;;;20.23;13.25;;;;;;;14.78;93.38;101823.91;2099758;28;20033;-60
2021/08/30 04:11:30;;;;;;;19.55;13.05;;;;;;;14.78;93.46;101823.91;2099736;28;20024;-60
2021/08/30 04:12:30;;;;;;;17.50;11.60;;;;;;;14.80;92.94;101827.31;2099704;28;20536;-59
2021/08/30 04:13:31;;;;;;;16.73;12.10;;;;;;;14.80;93.05;101827.31;2099691;28;20050;-60
2021/08/30 04:14:32;;;;;;;;;;;;;;;14.81;92.93;101829.00;2100028;28;20074;-61
2021/08/30 04:15:33;;;;;;;18.60;12.65;;;;;;;14.80;93.00;101827.31;2099517;28;19966;-60
2021/08/30 04:16:33;;;;;;;17.17;11.60;;;;;;;14.79;92.98;101825.63;2099674;28;20032;-59
2021/08/30 04:17:33;;;;;;;19.80;11.83;;;;;;;14.80;93.13;101832.56;2090750;28;20284;-60
2021/08/30 04:18:34;;;;;;;17.87;12.13;;;;;;;14.80;93.04;101827.31;2090859;28;20506;-61
2021/08/30 04:19:35;;;;;;;16.10;11.82;;;;;;;14.80;93.29;101829.94;2099628;28;20035;-60
2021/08/30 04:20:35;;;;;;;20.35;13.00;;;;;;;14.79;93.12;101828.25;2099574;28;20103;-60
2021/08/30 04:21:36;;;;;;;18.53;13.70;;;;;;;14.79;93.36;101831.69;2099688;28;20033;-60
2021/08/30 04:22:36;;;;;;;13.80;11.40;;;;;;;14.79;93.23;101834.31;2099601;28;20024;-59
2021/08/30 04:23:37;;;;;;;17.50;13.57;;;;;;;14.78;93.39;101832.63;2099659;28;20099;-60
2021/08/30 04:24:37;;;;;;;17.02;11.18;;;;;;;14.79;93.28;101836.13;2099680;28;20106;-59
2021/08/30 04:25:37;;;;;;;21.60;14.10;;;;;;;14.80;93.03;101822.06;2099704;28;20442;-61
2021/08/30 04:26:38;;;;;;;26.27;15.53;;;;;;;14.79;93.20;101826.44;2099570;28;20488;-61
2021/08/30 04:27:38;;;;;;;17.63;12.53;;;;;;;14.81;93.02;101839.53;2099599;28;20081;-60
2021/08/30 04:28:39;;;;;;;19.73;13.35;;;;;;;14.80;93.19;101827.31;2090533;28;20390;-59
2021/08/30 04:29:39;;;;;;;19.37;12.77;;;;;;;14.81;92.89;101831.63;2090714;28;20052;-61
2021/08/30 04:30:39;;;;;;;17.23;13.17;;;;;;;14.80;93.27;101827.31;2099564;28;20028;-60
2021/08/30 04:31:40;;;;;;;20.05;12.15;;;;;;;14.80;93.29;101835.19;2099577;28;20028;-60
2021/08/30 04:32:40;;;;;;;18.30;12.30;;;;;;;14.78;93.19;101830.00;2099577;28;20394;-59
2021/08/30 04:33:41;;;;;;;17.58;12.27;;;;;;;14.80;93.37;101832.56;2090650;28;20025;-61
2021/08/30 04:34:42;;;;;;;20.13;12.60;;;;;;;14.80;93.67;101832.56;2090591;28;20028;-61
2021/08/30 04:35:42;;;;;;;17.48;11.70;;;;;;;14.80;93.29;101835.19;2090732;28;20021;-61
2021/08/30 04:36:42;;;;;;;16.73;12.73;;;;;;;14.80;93.45;101835.19;2099533;28;20025;-60
2021/08/30 04:37:43;;;;;;;18.17;14.07;;;;;;;14.81;93.16;101831.63;2099467;28;20282;-60
2021/08/30 04:38:43;;;;;;;20.00;14.00;;;;;;;14.81;93.03;101834.25;2099411;28;20028;-60
2021/08/30 04:39:43;;;;;;;18.93;12.63;;;;;;;14.83;93.19;101837.69;2099623;28;20017;-61
2021/08/30 04:40:44;;;;;;;21.33;11.87;;;;;;;14.83;93.09;101837.69;2099444;28;20037;-62
2021/08/30 04:41:44;;;;;;;18.93;12.67;;;;;;;14.84;93.51;101833.25;2099544;28;20024;-61
2021/08/30 04:42:44;;;;;;;16.00;12.23;;;;;;;14.84;93.40;101836.75;2099441;28;20278;-60
2021/08/30 04:43:46;;;;;;;24.07;13.50;;;;;;;14.84;93.14;101834.13;2099561;28;20511;-59
2021/08/30 04:44:46;;;;;;;17.73;12.25;;;;;;;14.83;93.28;101835.06;2090505;28;20399;-59
2021/08/30 04:45:46;;;;;;;17.67;13.13;;;;;;;14.84;93.27;101842.00;2090696;28;20127;-60
2021/08/30 04:46:47;;;;;;;21.13;13.03;;;;;;;14.83;93.33;101839.44;2090468;28;20095;-60
2021/08/30 04:47:47;;;;;;;17.60;11.97;;;;;;;14.83;93.45;101845.56;2090624;28;20108;-60